createdAt,value
2022-08-27T00:00:20.917Z,99285.16
2022-08-27T00:02:49.049Z,99280.16
2022-08-27T00:05:18.250Z,99276.50
2022-08-27T00:07:46.158Z,99274.84
2022-08-27T00:10:18.034Z,99276.16
2022-08-27T00:12:44.855Z,99279.97
2022-08-27T00:15:12.645Z,99276.66
2022-08-27T00:17:46.908Z,99282.16
2022-08-27T00:20:18.010Z,99279.31
2022-08-27T00:22:44.864Z,99275.16
2022-08-27T00:25:13.036Z,99278.16
2022-08-27T00:27:40.285Z,99271.00
2022-08-27T00:30:11.122Z,99266.59
2022-08-27T00:32:38.801Z,99267.69
2022-08-27T00:35:05.970Z,99266.00
2022-08-27T00:37:33.495Z,99266.00
2022-08-27T00:40:00.789Z,99266.50
2022-08-27T00:42:27.756Z,99269.50
2022-08-27T00:44:59.359Z,99267.84
2022-08-27T00:47:30.686Z,99269.97
2022-08-27T00:50:12.582Z,99270.84
2022-08-27T00:52:45.474Z,99275.72
2022-08-27T00:55:18.153Z,99278.91
2022-08-27T00:57:49.917Z,99277.28
2022-08-27T01:00:18.392Z,99273.94
2022-08-27T01:02:47.296Z,99279.41
2022-08-27T01:05:18.429Z,99273.94
2022-08-27T01:07:50.234Z,99270.59
2022-08-27T01:10:20.145Z,99274.41
2022-08-27T01:12:53.772Z,99273.34
2022-08-27T01:15:23.233Z,99272.28
2022-08-27T01:17:51.065Z,99268.94
2022-08-27T01:20:27.352Z,99271.09
2022-08-27T01:23:18.407Z,99273.25
2022-08-27T01:25:45.986Z,99274.34
2022-08-27T01:28:14.138Z,99272.66
2022-08-27T01:30:41.650Z,99270.78
2022-08-27T01:33:14.802Z,99271.09
2022-08-27T01:35:43.218Z,99272.78
2022-08-27T01:38:19.006Z,99280.38
2022-08-27T01:40:59.066Z,99277.06
2022-08-27T01:43:27.460Z,99283.03
2022-08-27T01:45:54.130Z,99279.72
2022-08-27T01:48:22.507Z,99287.38
2022-08-27T01:50:49.735Z,99282.38
2022-08-27T01:53:20.844Z,99276.66
2022-08-27T01:55:49.710Z,99275.56
2022-08-27T01:58:18.857Z,99278.53
2022-08-27T02:00:51.964Z,99280.72
2022-08-27T02:03:23.640Z,99283.34
2022-08-27T02:05:50.327Z,99270.97
2022-08-27T02:08:17.698Z,99274.53
2022-08-27T02:10:46.888Z,99281.69
2022-08-27T02:13:13.841Z,99280.50
2022-08-27T02:15:41.891Z,99275.03
2022-08-27T02:18:10.778Z,99282.66
2022-08-27T02:20:38.152Z,99278.25
2022-08-27T02:23:05.132Z,99289.44
2022-08-27T02:25:31.904Z,99289.69
2022-08-27T02:28:00.779Z,99281.97
2022-08-27T02:30:29.563Z,99283.06
2022-08-27T02:32:56.207Z,99281.63
2022-08-27T02:35:24.460Z,99286.28
2022-08-27T02:37:51.933Z,99285.44
2022-08-27T02:40:21.110Z,99292.81
2022-08-27T02:42:47.838Z,99292.25
2022-08-27T02:45:15.833Z,99292.50
2022-08-27T02:47:43.030Z,99293.22
2022-08-27T02:50:10.587Z,99289.78
2022-08-27T02:52:37.352Z,99283.00
2022-08-27T02:55:06.801Z,99293.72
2022-08-27T02:57:36.489Z,99287.06
2022-08-27T03:00:06.747Z,99294.69
2022-08-27T03:02:33.501Z,99305.63
2022-08-27T03:05:00.294Z,99298.50
2022-08-27T03:07:27.382Z,99303.38
2022-08-27T03:09:54.013Z,99305.28
2022-08-27T03:12:20.853Z,99303.63
2022-08-27T03:14:49.621Z,99308.25
2022-08-27T03:17:35.142Z,99312.06
2022-08-27T03:20:02.320Z,99306.69
2022-08-27T03:22:29.291Z,99307.41
2022-08-27T03:24:56.438Z,99302.41
2022-08-27T03:27:23.135Z,99311.09
2022-08-27T03:29:49.863Z,99313.25
2022-08-27T03:32:16.501Z,99312.69
2022-08-27T03:34:43.240Z,99315.41
2022-08-27T03:37:09.879Z,99317.06
2022-08-27T03:39:36.566Z,99313.72
2022-08-27T03:42:03.961Z,99310.19
2022-08-27T03:44:31.392Z,99311.22
2022-08-27T03:46:57.976Z,99318.03
2022-08-27T03:49:24.644Z,99316.34
2022-08-27T03:51:53.846Z,99321.00
2022-08-27T03:54:20.593Z,99314.69
2022-08-27T03:56:47.241Z,99320.78
2022-08-27T03:59:15.772Z,99328.97
2022-08-27T04:01:43.504Z,99330.63
2022-08-27T04:04:10.358Z,99328.47
2022-08-27T04:06:37.038Z,99331.22
2022-08-27T04:09:04.471Z,99328.47
2022-08-27T04:11:34.475Z,99338.34
2022-08-27T04:14:04.505Z,99331.81
2022-08-27T04:16:48.206Z,99333.47
2022-08-27T04:19:17.386Z,99335.16
2022-08-27T04:21:44.037Z,99335.16
2022-08-27T04:24:11.985Z,99338.47
2022-08-27T04:26:42.596Z,99346.81
2022-08-27T04:29:09.204Z,99342.53
2022-08-27T04:31:35.851Z,99343.72
2022-08-27T04:34:02.869Z,99341.56
2022-08-27T04:36:29.452Z,99349.19
2022-08-27T04:38:56.107Z,99343.72
2022-08-27T04:41:25.062Z,99346.09
2022-08-27T04:43:59.575Z,99346.00
2022-08-27T04:46:29.519Z,99343.72
2022-08-27T04:49:01.407Z,99346.59
2022-08-27T04:51:29.152Z,99343.88
2022-08-27T04:53:57.358Z,99345.13
2022-08-27T04:56:28.360Z,99338.19
2022-08-27T04:58:55.677Z,99340.59
2022-08-27T05:01:28.068Z,99335.78
2022-08-27T05:03:55.624Z,99346.38
2022-08-27T05:06:23.382Z,99340.50
2022-08-27T05:08:51.772Z,99344.03
2022-08-27T05:11:20.796Z,99346.75
2022-08-27T05:13:48.480Z,99351.59
2022-08-27T05:16:19.175Z,99350.13
2022-08-27T05:18:48.567Z,99347.47
2022-08-27T05:21:30.459Z,99356.53
2022-08-27T05:23:59.604Z,99351.00
2022-08-27T05:26:28.181Z,99362.63
2022-08-27T05:28:55.471Z,99350.81
2022-08-27T05:31:22.644Z,99353.16
2022-08-27T05:33:50.113Z,99353.34
2022-08-27T05:36:20.532Z,99360.66
2022-08-27T05:38:49.371Z,99361.91
2022-08-27T05:41:20.086Z,99360.81
2022-08-27T05:43:50.338Z,99361.63
2022-08-27T05:46:20.422Z,99364.94
2022-08-27T05:48:47.623Z,99368.75
2022-08-27T05:51:16.193Z,99368.38
2022-08-27T05:53:55.298Z,99371.09
2022-08-27T05:56:24.229Z,99366.44
2022-08-27T05:59:09.612Z,99358.00
2022-08-27T06:01:40.941Z,99362.53
2022-08-27T06:04:09.368Z,99360.38
2022-08-27T06:06:37.827Z,99363.13
2022-08-27T06:09:05.306Z,99363.38
2022-08-27T06:11:32.045Z,99367.94
2022-08-27T06:13:58.693Z,99366.09
2022-08-27T06:16:25.558Z,99363.66
2022-08-27T06:18:52.289Z,99367.09
2022-08-27T06:21:24.230Z,99360.50
2022-08-27T06:23:51.920Z,99370.19
2022-08-27T06:26:20.053Z,99364.47
2022-08-27T06:28:46.959Z,99377.16
2022-08-27T06:31:16.363Z,99368.91
2022-08-27T06:33:44.726Z,99383.88
2022-08-27T06:36:14.671Z,99372.06
2022-08-27T06:38:43.215Z,99372.97
2022-08-27T06:41:16.243Z,99373.00
2022-08-27T06:43:43.874Z,99372.53
2022-08-27T06:46:14.280Z,99371.44
2022-08-27T06:48:41.449Z,99368.13
2022-08-27T06:51:14.557Z,99366.44
2022-08-27T06:53:43.558Z,99368.09
2022-08-27T06:56:11.836Z,99371.44
2022-08-27T06:58:38.521Z,99372.50
2022-08-27T07:01:20.349Z,99374.13
2022-08-27T07:03:47.098Z,99369.72
2022-08-27T07:06:17.233Z,99371.28
2022-08-27T07:08:53.251Z,99375.69
2022-08-27T07:11:21.093Z,99368.63
2022-08-27T07:13:49.104Z,99371.41
2022-08-27T07:16:22.212Z,99373.00
2022-08-27T07:18:55.560Z,99373.97
2022-08-27T07:21:23.577Z,99375.34
2022-08-27T07:23:53.080Z,99376.78
2022-08-27T07:26:21.791Z,99376.16
2022-08-27T07:28:50.132Z,99379.38
2022-08-27T07:31:20.068Z,99373.75
2022-08-27T07:33:51.466Z,99378.03
2022-08-27T07:36:20.359Z,99386.50
2022-08-27T07:38:56.594Z,99391.13
2022-08-27T07:41:31.010Z,99389.28
2022-08-27T07:44:18.590Z,99387.84
2022-08-27T07:46:48.351Z,99394.47
2022-08-27T07:49:16.494Z,99399.72
2022-08-27T07:51:43.121Z,99393.56
2022-08-27T07:54:09.844Z,99399.00
2022-08-27T07:56:36.561Z,99389.34
2022-08-27T07:59:03.259Z,99387.75
2022-08-27T08:01:30.178Z,99390.84
2022-08-27T08:03:57.011Z,99390.16
2022-08-27T08:06:24.015Z,99395.25
2022-08-27T08:08:50.675Z,99395.78
2022-08-27T08:11:18.649Z,99393.91
2022-08-27T08:13:46.655Z,99391.81
2022-08-27T08:16:14.420Z,99394.72
2022-08-27T08:18:41.101Z,99396.53
2022-08-27T08:21:12.476Z,99406.00
2022-08-27T08:23:39.463Z,99397.59
2022-08-27T08:26:06.934Z,99410.81
2022-08-27T08:28:34.164Z,99408.44
2022-08-27T08:31:01.554Z,99403.75
2022-08-27T08:33:28.861Z,99406.81
2022-08-27T08:35:55.597Z,99410.25
2022-08-27T08:38:22.339Z,99409.38
2022-08-27T08:40:54.563Z,99406.69
2022-08-27T08:43:27.639Z,99409.69
2022-08-27T08:45:56.927Z,99408.41
2022-08-27T08:48:29.692Z,99402.78
2022-08-27T08:50:59.114Z,99403.75
2022-08-27T08:53:52.408Z,99409.25
2022-08-27T08:56:31.046Z,99408.22
2022-08-27T08:59:04.287Z,99407.81
2022-08-27T09:01:31.010Z,99404.31
2022-08-27T09:04:01.018Z,99414.44
2022-08-27T09:06:41.085Z,99411.31
2022-08-27T09:09:30.767Z,99408.78
2022-08-27T09:12:08.833Z,99414.97
2022-08-27T09:14:49.311Z,99416.94
2022-08-27T09:17:17.059Z,99410.94
2022-08-27T09:19:44.251Z,99409.72
2022-08-27T09:22:21.326Z,99412.16
2022-08-27T09:25:11.716Z,99406.19
2022-08-27T09:27:42.942Z,99411.13
2022-08-27T09:30:11.578Z,99411.72
2022-08-27T09:32:39.365Z,99409.28
2022-08-27T09:35:09.675Z,99402.88
2022-08-27T09:37:43.807Z,99402.31
2022-08-27T09:40:29.358Z,99398.81
2022-08-27T09:43:20.642Z,99398.16
2022-08-27T09:45:57.616Z,99391.44
2022-08-27T09:48:30.814Z,99397.97
2022-08-27T09:51:01.305Z,99393.31
2022-08-27T09:53:51.785Z,99384.31
2022-08-27T09:56:29.539Z,99388.22
2022-08-27T09:59:10.235Z,99389.47
2022-08-27T10:01:51.206Z,99394.25
2022-08-27T10:04:26.377Z,99384.72
2022-08-27T10:06:54.807Z,99383.06
2022-08-27T10:09:47.162Z,99391.31
2022-08-27T10:12:29.293Z,99391.94
2022-08-27T10:14:59.737Z,99388.19
2022-08-27T10:17:41.558Z,99384.78
2022-08-27T10:20:31.033Z,99395.34
2022-08-27T10:23:41.939Z,99391.66
2022-08-27T10:26:20.986Z,99386.38
2022-08-27T10:28:47.877Z,99391.44
2022-08-27T10:31:39.157Z,99377.34
2022-08-27T10:34:14.376Z,99385.81
2022-08-27T10:37:07.952Z,99383.56
2022-08-27T10:39:46.637Z,99384.09
2022-08-27T10:42:18.836Z,99375.38
2022-08-27T10:45:09.631Z,99375.38
2022-08-27T10:47:53.883Z,99370.81
2022-08-27T10:50:49.056Z,99365.94
2022-08-27T10:53:35.901Z,99374.34
2022-08-27T10:56:28.850Z,99362.13
2022-08-27T10:59:05.997Z,99373.38
2022-08-27T11:01:41.790Z,99380.31
2022-08-27T11:04:20.344Z,99378.16
2022-08-27T11:06:56.858Z,99379.03
2022-08-27T11:09:56.983Z,99392.44
2022-08-27T11:12:33.841Z,99399.00
2022-08-27T11:15:07.954Z,99396.28
2022-08-27T11:18:02.505Z,99393.47
2022-08-27T11:20:40.925Z,99389.13
2022-08-27T11:23:15.787Z,99386.69
2022-08-27T11:25:51.940Z,99394.09
2022-08-27T11:28:30.043Z,99384.78
2022-08-27T11:31:24.878Z,99378.97
2022-08-27T11:34:05.563Z,99380.34
2022-08-27T11:36:32.140Z,99369.91
2022-08-27T11:38:58.701Z,99357.47
2022-08-27T11:41:45.180Z,99357.34
2022-08-27T11:44:15.074Z,99354.81
2022-08-27T11:46:52.140Z,99344.56
2022-08-27T11:49:35.479Z,99346.09
2022-08-27T11:52:07.220Z,99338.09
2022-08-27T11:54:49.511Z,99348.03
2022-08-27T11:57:32.423Z,99346.81
2022-08-27T12:00:10.893Z,99354.59
2022-08-27T12:02:37.590Z,99372.34
2022-08-27T12:05:33.193Z,99353.94
2022-08-27T12:08:01.101Z,99361.06
2022-08-27T12:10:45.139Z,99365.66
2022-08-27T12:13:27.894Z,99357.31
2022-08-27T12:15:58.668Z,99369.16
2022-08-27T12:18:38.934Z,99366.22
2022-08-27T12:21:17.472Z,99374.44
2022-08-27T12:24:08.840Z,99365.28
2022-08-27T12:26:41.631Z,99362.00
2022-08-27T12:29:35.583Z,99362.88
2022-08-27T12:32:41.795Z,99364.50
2022-08-27T12:35:29.688Z,99360.00
2022-08-27T12:38:16.177Z,99350.91
2022-08-27T12:41:00.277Z,99334.00
2022-08-27T12:43:29.953Z,99341.00
2022-08-27T12:46:03.692Z,99332.97
2022-08-27T12:48:44.348Z,99333.09
2022-08-27T12:51:15.060Z,99326.16
2022-08-27T12:54:01.665Z,99322.25
2022-08-27T12:56:28.239Z,99322.19
2022-08-27T12:59:05.144Z,99317.31
2022-08-27T13:01:44.531Z,99312.56
2022-08-27T13:04:25.801Z,99313.81
2022-08-27T13:06:52.488Z,99315.06
2022-08-27T13:09:34.264Z,99318.47
2022-08-27T13:12:03.705Z,99313.44
2022-08-27T13:14:39.268Z,99312.63
2022-08-27T13:17:18.844Z,99311.06
2022-08-27T13:19:51.363Z,99306.00
2022-08-27T13:22:23.616Z,99304.00
2022-08-27T13:24:52.809Z,99308.84
2022-08-27T13:27:28.327Z,99305.16
2022-08-27T13:29:56.128Z,99299.00
2022-08-27T13:32:27.222Z,99305.81
2022-08-27T13:34:54.022Z,99310.00
2022-08-27T13:37:51.530Z,99306.19
2022-08-27T13:41:01.207Z,99309.63
2022-08-27T13:43:48.631Z,99303.28
2022-08-27T13:46:17.706Z,99301.00
2022-08-27T13:48:47.654Z,99298.84
2022-08-27T13:51:15.864Z,99304.16
2022-08-27T13:54:05.829Z,99297.03
2022-08-27T13:56:36.920Z,99291.25
2022-08-27T13:59:21.567Z,99297.25
2022-08-27T14:02:00.478Z,99297.63
2022-08-27T14:04:49.260Z,99298.81
2022-08-27T14:07:20.917Z,99293.50
2022-08-27T14:09:55.142Z,99290.94
2022-08-27T14:12:38.168Z,99294.97
2022-08-27T14:15:25.702Z,99297.25
2022-08-27T14:17:52.658Z,99296.41
2022-08-27T14:20:20.461Z,99291.63
2022-08-27T14:22:47.729Z,99301.09
2022-08-27T14:25:22.429Z,99293.84
2022-08-27T14:27:54.048Z,99294.34
2022-08-27T14:30:29.330Z,99298.13
2022-08-27T14:32:59.140Z,99300.34
2022-08-27T14:35:26.711Z,99298.69
2022-08-27T14:37:54.346Z,99304.28
2022-08-27T14:40:21.175Z,99305.34
2022-08-27T14:42:47.833Z,99304.59
2022-08-27T14:45:15.193Z,99304.47
2022-08-27T14:47:44.181Z,99313.19
2022-08-27T14:50:12.878Z,99301.91
2022-08-27T14:52:40.747Z,99305.06
2022-08-27T14:55:10.762Z,99300.78
2022-08-27T14:57:37.980Z,99303.63
2022-08-27T15:00:06.832Z,99298.84
2022-08-27T15:02:34.408Z,99297.19
2022-08-27T15:05:01.166Z,99301.78
2022-08-27T15:07:37.817Z,99298.09
2022-08-27T15:10:04.974Z,99301.84
2022-08-27T15:12:32.074Z,99304.41
2022-08-27T15:14:58.967Z,99309.84
2022-08-27T15:17:34.514Z,99315.25
2022-08-27T15:20:08.111Z,99317.16
2022-08-27T15:22:37.844Z,99305.94
2022-08-27T15:25:09.072Z,99305.56
2022-08-27T15:27:39.107Z,99307.69
2022-08-27T15:30:12.557Z,99312.34
2022-08-27T15:32:46.899Z,99316.16
2022-08-27T15:35:20.947Z,99312.19
2022-08-27T15:37:47.646Z,99309.41
2022-08-27T15:40:16.306Z,99309.84
2022-08-27T15:42:43.108Z,99312.31
2022-08-27T15:45:13.116Z,99312.03
2022-08-27T15:47:39.910Z,99307.41
2022-08-27T15:50:07.348Z,99317.59
2022-08-27T15:52:41.047Z,99313.63
2022-08-27T15:55:21.013Z,99306.28
2022-08-27T15:57:48.036Z,99298.22
2022-08-27T16:00:16.767Z,99297.19
2022-08-27T16:02:44.831Z,99294.72
2022-08-27T16:05:13.137Z,99299.06
2022-08-27T16:07:40.095Z,99301.19
2022-08-27T16:10:07.932Z,99297.66
2022-08-27T16:12:35.993Z,99295.00
2022-08-27T16:15:05.809Z,99295.56
2022-08-27T16:17:33.071Z,99285.66
2022-08-27T16:20:00.115Z,99284.94
2022-08-27T16:22:26.863Z,99281.94
2022-08-27T16:24:54.036Z,99274.81
2022-08-27T16:27:20.834Z,99276.38
2022-08-27T16:29:47.420Z,99273.47
2022-08-27T16:32:17.334Z,99278.28
2022-08-27T16:34:53.278Z,99276.66
2022-08-27T16:37:26.666Z,99275.91
2022-08-27T16:39:53.568Z,99281.47
2022-08-27T16:42:20.649Z,99291.34
2022-08-27T16:44:47.311Z,99276.88
2022-08-27T16:47:14.162Z,99281.25
2022-08-27T16:49:59.336Z,99287.53
2022-08-27T16:52:25.996Z,99294.50
2022-08-27T16:54:53.058Z,99290.56
2022-08-27T16:57:19.681Z,99288.25
2022-08-27T16:59:46.423Z,99298.81
2022-08-27T17:02:30.201Z,99299.38
2022-08-27T17:05:17.446Z,99299.19
2022-08-27T17:07:48.744Z,99302.50
2022-08-27T17:10:18.400Z,99299.44
2022-08-27T17:12:47.246Z,99296.94
2022-08-27T17:15:18.544Z,99303.28
2022-08-27T17:17:46.043Z,99306.78
2022-08-27T17:20:13.233Z,99326.25
2022-08-27T17:22:39.948Z,99314.63
2022-08-27T17:25:07.886Z,99320.03
2022-08-27T17:27:34.583Z,99324.41
2022-08-27T17:30:01.244Z,99340.53
2022-08-27T17:32:31.591Z,99339.16
2022-08-27T17:35:00.272Z,99341.59
2022-08-27T17:37:30.288Z,99344.22
2022-08-27T17:39:57.482Z,99352.34
2022-08-27T17:42:26.141Z,99353.06
2022-08-27T17:44:53.136Z,99358.13
2022-08-27T17:47:20.952Z,99354.94
2022-08-27T17:49:47.618Z,99360.28
2022-08-27T17:52:15.340Z,99362.31
2022-08-27T17:54:45.883Z,99356.56
2022-08-27T17:57:24.512Z,99357.75
2022-08-27T17:59:53.545Z,99357.00
2022-08-27T18:02:28.287Z,99361.50
2022-08-27T18:04:55.611Z,99362.69
2022-08-27T18:07:22.622Z,99361.88
2022-08-27T18:09:49.880Z,99369.97
2022-08-27T18:12:21.699Z,99365.63
2022-08-27T18:14:56.915Z,99375.88
2022-08-27T18:17:23.575Z,99374.53
2022-08-27T18:19:51.356Z,99375.66
2022-08-27T18:22:18.203Z,99380.66
2022-08-27T18:24:45.050Z,99380.66
2022-08-27T18:27:11.698Z,99384.28
2022-08-27T18:29:38.356Z,99387.84
2022-08-27T18:32:05.161Z,99386.78
2022-08-27T18:34:32.541Z,99387.34
2022-08-27T18:36:59.288Z,99393.44
2022-08-27T18:39:26.176Z,99402.84
2022-08-27T18:41:53.277Z,99397.88
2022-08-27T18:44:20.091Z,99396.78
2022-08-27T18:46:46.772Z,99397.34
2022-08-27T18:49:13.460Z,99397.94
2022-08-27T18:51:43.036Z,99401.53
2022-08-27T18:54:09.802Z,99410.09
2022-08-27T18:56:36.548Z,99407.91
2022-08-27T18:59:04.317Z,99409.53
2022-08-27T19:01:32.007Z,99406.78
2022-08-27T19:03:58.970Z,99418.41
2022-08-27T19:06:25.727Z,99420.03
2022-08-27T19:08:52.446Z,99416.44
2022-08-27T19:11:19.415Z,99412.31
2022-08-27T19:13:50.578Z,99424.19
2022-08-27T19:16:20.285Z,99419.47
2022-08-27T19:18:47.382Z,99413.41
2022-08-27T19:21:14.287Z,99417.25
2022-08-27T19:23:41.600Z,99414.50
2022-08-27T19:26:15.888Z,99413.38
2022-08-27T19:28:45.181Z,99417.81
2022-08-27T19:31:13.624Z,99412.00
2022-08-27T19:33:40.664Z,99413.94
2022-08-27T19:36:15.025Z,99423.84
2022-08-27T19:38:43.033Z,99416.03
2022-08-27T19:41:09.837Z,99420.16
2022-08-27T19:43:36.580Z,99416.25
2022-08-27T19:46:04.905Z,99410.47
2022-08-27T19:48:34.170Z,99419.81
2022-08-27T19:51:01.282Z,99419.25
2022-08-27T19:53:28.036Z,99413.97
2022-08-27T19:55:54.899Z,99417.00
2022-08-27T19:58:21.874Z,99418.59
2022-08-27T20:00:49.065Z,99429.31
2022-08-27T20:03:16.416Z,99421.84
2022-08-27T20:05:44.105Z,99428.97
2022-08-27T20:08:12.550Z,99427.25
2022-08-27T20:10:40.299Z,99421.72
2022-08-27T20:13:08.014Z,99425.00
2022-08-27T20:15:36.283Z,99429.91
2022-08-27T20:18:05.921Z,99434.28
2022-08-27T20:20:33.733Z,99429.28
2022-08-27T20:23:03.736Z,99437.00
2022-08-27T20:25:31.253Z,99435.34
2022-08-27T20:27:58.056Z,99430.69
2022-08-27T20:30:28.061Z,99435.88
2022-08-27T20:32:54.855Z,99444.63
2022-08-27T20:35:22.238Z,99441.84
2022-08-27T20:37:48.987Z,99442.31
2022-08-27T20:40:27.474Z,99448.38
2022-08-27T20:42:54.220Z,99443.13
2022-08-27T20:45:20.997Z,99448.88
2022-08-27T20:47:49.503Z,99445.56
2022-08-27T20:50:18.362Z,99451.59
2022-08-27T20:52:45.634Z,99450.47
2022-08-27T20:55:14.327Z,99449.81
2022-08-27T20:58:05.837Z,99449.81
2022-08-27T21:00:34.753Z,99452.53
2022-08-27T21:03:01.756Z,99454.41
2022-08-27T21:05:33.695Z,99451.31
2022-08-27T21:08:00.952Z,99449.06
2022-08-27T21:10:27.710Z,99454.50
2022-08-27T21:12:54.341Z,99444.03
2022-08-27T21:15:21.087Z,99448.94
2022-08-27T21:17:47.833Z,99451.69
2022-08-27T21:20:14.668Z,99450.63
2022-08-27T21:22:43.253Z,99455.88
2022-08-27T21:25:12.420Z,99449.53
2022-08-27T21:27:39.748Z,99453.88
2022-08-27T21:30:08.654Z,99449.41
2022-08-27T21:32:35.352Z,99449.13
2022-08-27T21:35:01.977Z,99449.94
2022-08-27T21:37:28.662Z,99451.59
2022-08-27T21:39:55.380Z,99454.94
2022-08-27T21:42:22.069Z,99458.25
2022-08-27T21:44:49.453Z,99456.59
2022-08-27T21:47:16.220Z,99457.94
2022-08-27T21:49:42.928Z,99466.94
2022-08-27T21:52:09.985Z,99459.13
2022-08-27T21:54:39.690Z,99456.81
2022-08-27T21:57:06.737Z,99468.34
2022-08-27T21:59:40.143Z,99459.50
2022-08-27T22:02:28.813Z,99463.34
2022-08-27T22:04:54.318Z,99459.50
2022-08-27T22:07:20.987Z,99462.84
2022-08-27T22:09:48.859Z,99462.00
2022-08-27T22:12:15.788Z,99459.00
2022-08-27T22:14:42.413Z,99457.06
2022-08-27T22:17:09.033Z,99456.81
2022-08-27T22:19:35.772Z,99462.84
2022-08-27T22:22:02.477Z,99457.84
2022-08-27T22:24:29.151Z,99449.53
2022-08-27T22:26:55.840Z,99444.53
2022-08-27T22:29:24.526Z,99450.00
2022-08-27T22:31:51.509Z,99442.75
2022-08-27T22:34:18.214Z,99448.22
2022-08-27T22:36:44.901Z,99440.06
2022-08-27T22:39:11.561Z,99449.00
2022-08-27T22:41:38.377Z,99444.50
2022-08-27T22:44:08.537Z,99451.06
2022-08-27T22:46:35.658Z,99443.31
2022-08-27T22:49:02.330Z,99443.31
2022-08-27T22:51:28.948Z,99445.00
2022-08-27T22:53:55.596Z,99446.97
2022-08-27T22:56:22.395Z,99444.84
2022-08-27T22:58:49.033Z,99445.16
2022-08-27T23:01:20.481Z,99446.81
2022-08-27T23:03:47.929Z,99441.31
2022-08-27T23:06:14.832Z,99454.00
2022-08-27T23:08:41.537Z,99454.00
2022-08-27T23:11:08.247Z,99453.16
2022-08-27T23:13:35.111Z,99451.50
2022-08-27T23:16:03.179Z,99454.50
2022-08-27T23:18:30.463Z,99443.50
2022-08-27T23:20:57.148Z,99451.75
2022-08-27T23:23:26.770Z,99451.16
2022-08-27T23:26:16.136Z,99440.63
2022-08-27T23:28:43.588Z,99444.50
2022-08-27T23:31:10.754Z,99435.66
2022-08-27T23:33:38.448Z,99442.81
2022-08-27T23:36:06.347Z,99441.13
2022-08-27T23:38:33.874Z,99441.66
2022-08-27T23:41:00.679Z,99436.66
2022-08-27T23:43:28.345Z,99446.50
2022-08-27T23:45:55.011Z,99454.69
2022-08-27T23:48:21.644Z,99450.19
2022-08-27T23:50:48.410Z,99449.84
2022-08-27T23:53:15.333Z,99457.50
2022-08-27T23:55:42.061Z,99451.19
2022-08-27T23:58:09.500Z,99453.34
